Zataženo s lehkým deštěm
Polojasno
Polojasno
Polojasno
Lehký déšť, možnost bouřek
Lehký déšť, možnost bouřek
Zataženo
Lehký déšť, možnost bouřek
Spojeno s přeháňkami
(°C)
24°
24°
24°
24°
24°
24°
23°
23°
22°
22°
21°
21°
19°
19°
18°
18°
16°
16°
(°C)
22°
22°
22°
22°
21°
20°
19°
17°
16°
Z
ZJZ
ZJZ
ZJZ
JZ
ZJZ
ZJZ
JZ
JZ
(km/h)
11-38
11-37
10-37
10-37
9-36
9-36
9-35
8-30
7-23
(mm)
1
0
0
0
0.5
0.1
0
0.6
0.1
(%)
65
16
25
5
39
51
51
39
25

Sluneční výška

/ 57.2°
sun-icon
UV 6
05:13
21:38
Dorůstající měsíc (119°)
17:19
00:40

METAR pro Hermannsburg (ETHS)

Čas Podmínky Teplota/
Rosný bod
Vítr Viditelnost Počasí Oblaky Tlak Změna Nezpracované
VFR 23°C / 14°C 260º 11kt 9700m Light Showers Rain 3.00mm precipitation Few Clouds 3000ft
Scattered Clouds 6000ft
1009 Temporary: WHT ETHS 161120Z 26011KT 9999 -SHRA FEW030TCU SCT060 23/14 Q1009 BLU+BLU+ TEMPO WHT
VFR 24°C / 14°C 250º 13kt 9700m - Scattered Clouds 3200ft
Broken Clouds 28000ft
1009 Temporary: WHT ETHS 161020Z 25013KT 9999 SCT032 BKN280 24/14 Q1009 BLU+BLU+ TEMPO WHT
VFR 23°C / 15°C 240º 13kt 9700m - Few Clouds 3000ft
Scattered Clouds 9000ft
Broken Clouds 30000ft
1009 - ETHS 160920Z 24013KT 9999 FEW030 SCT090 BKN300 23/15 Q1009 BLU+
VFR 22°C / 18°C 240º 11kt 9700m - Scattered Clouds 1500ft
Scattered Clouds 6000ft
1009 - ETHS 160820Z 24011KT 9999 SCT015 SCT060 22/18 Q1009 BLU+BLU+
MVFR 21°C / 18°C 250º 7kt 9700m - Broken Clouds 2000ft
Scattered Clouds 9000ft
1009 Temporary: WHT ETHS 160759Z 25007KT 9999 BKN020 SCT090 21/18 Q1009 WHT BLU+ TEMPO WHT
VFR 20°C / 18°C 200º 7kt 9700m - Few Clouds 900ft
Scattered Clouds 2500ft
Broken Clouds 30000ft
1009 - ETHS 160720Z 20007KT 9999 FEW009 SCT025 BKN300 20/18 Q1009 BLU+BLU+
MVFR 19°C / 17°C 170º 4kt 8000m - Few Clouds 300ft
Broken Clouds 4000ft
Broken Clouds 10000ft
1009 - ETHS 160620Z 17004KT 8000 FEW003 BKN040 BKN100 19/17 Q1009 BLU BLU
MVFR 17°C / 17°C 1kt 6000m - Few Clouds 300ft
Scattered Clouds 6000ft
Broken Clouds 10000ft
1008 - ETHS 160520Z VRB01KT 6000 FEW003 SCT060 BKN100 17/17 Q1008 WHT BLU
MVFR 17°C / 16°C 1kt 6000m - Few Clouds 300ft
Scattered Clouds 6000ft
Broken Clouds 9000ft
1008 - ETHS 160433Z VRB01KT 6000 FEW003 SCT060 BKN090 17/16 Q1008 WHT BLU
MVFR 17°C / 16°C 110º 2kt 8000m - Few Clouds 300ft
Scattered Clouds 6000ft
Broken Clouds 10000ft
1008 - ETHS 160420Z 11002KT 8000 FEW003 SCT060 BKN100 17/16 Q1008 BLU BLU
VFR 16°C / 16°C 120º 4kt 9700m Light Rain 1.00mm precipitation Few Clouds 300ft
Broken Clouds 10000ft
1009 - ETHS 160320Z 12004KT 9999 -RA FEW003 BKN100 16/16 Q1009 BLU
VFR 17°C / 15°C 150º 6kt 9700m Light Rain 1.00mm precipitation Broken Clouds 8000ft 1009 - ETHS 160220Z 15006KT 9999 -RA BKN080 17/15 Q1009 BLU
VFR 17°C / 12°C 180º 6kt 9700m - Broken Clouds 11000ft 1010 - ETHS 160120Z 18006KT 9999 BKN110 17/12 Q1010 BLU
VFR 17°C / 11°C 80º 6kt 9700m - Broken Clouds 11000ft 1009 - ETHS 160020Z 08006KT 9999 BKN110 17/11 Q1009 BLU
VFR 17°C / 12°C 80º 6kt 9700m - Broken Clouds 12000ft 1009 - ETHS 152320Z 08006KT 9999 BKN120 17/12 Q1009 BLU
VFR 16°C / 12°C 80º 6kt 9700m - Scattered Clouds 16000ft
Broken Clouds 23000ft
1010 - ETHS 152220Z 08006KT 9999 SCT160 BKN230 16/12 Q1010 BLU+
VFR 17°C / 12°C 70º 6kt 9700m - Broken Clouds 25000ft 1010 - ETHS 152120Z 07006KT 9999 BKN250 17/12 Q1010 BLU+
VFR 17°C / 13°C 70º 6kt 9700m - Broken Clouds 26000ft 1010 - ETHS 152020Z 07006KT 9999 BKN260 17/13 Q1010 BLU+
VFR 20°C / 12°C 50º 3kt 9700m - Broken Clouds 26000ft 1011 - ETHS 151920Z 05003KT 9999 BKN260 20/12 Q1011 BLU+
VFR 22°C / 13°C 60º 4kt 9700m - Broken Clouds 24000ft 1010 - ETHS 151820Z 06004KT 9999 BKN240 22/13 Q1010 BLU+
VFR 25°C / 8°C 160º 2kt 9700m - Few Clouds 5000ft
Broken Clouds 24000ft
1011 - ETHS 151720Z 16002KT 9999 FEW050 BKN240 25/08 Q1011 BLU+
VFR 25°C / 9°C 160º 3kt 9700m - Few Clouds 5000ft
Broken Clouds 26000ft
1011 - ETHS 151620Z 16003KT 9999 FEW050 BKN260 25/09 Q1011 BLU+
VFR 25°C / 8°C 230º 4kt 9700m - Few Clouds 6000ft
Scattered Clouds 25000ft
1011 - ETHS 151520Z 23004KT 9999 FEW060 SCT250 25/08 Q1011 BLU+
VFR 25°C / 8°C 210º 4kt 9700m - Few Clouds 6000ft
Broken Clouds 25000ft
1012 - ETHS 151500Z 21004KT 9999 FEW060 BKN250 25/08 Q1012 BLU+FCST CNL

VFR

23°C / 14°C

[Víc]
Vítr 260º 11kt
Viditelnost 9700m
Počasí Light Showers Rain 3.00mm precipitation
Oblaky Few Clouds 3000ft
Scattered Clouds 6000ft
Tlak 1009
Změna Temporary: WHT
Nezpracované ETHS 161120Z 26011KT 9999 -SHRA FEW030TCU SCT060 23/14 Q1009 BLU+BLU+ TEMPO WHT

VFR

24°C / 14°C

[Víc]
Vítr 250º 13kt
Viditelnost 9700m
Počasí -
Oblaky Scattered Clouds 3200ft
Broken Clouds 28000ft
Tlak 1009
Změna Temporary: WHT
Nezpracované ETHS 161020Z 25013KT 9999 SCT032 BKN280 24/14 Q1009 BLU+BLU+ TEMPO WHT

VFR

23°C / 15°C

[Víc]
Vítr 240º 13kt
Viditelnost 9700m
Počasí -
Oblaky Few Clouds 3000ft
Scattered Clouds 9000ft
Broken Clouds 30000ft
Tlak 1009
Změna -
Nezpracované ETHS 160920Z 24013KT 9999 FEW030 SCT090 BKN300 23/15 Q1009 BLU+

VFR

22°C / 18°C

[Víc]
Vítr 240º 11kt
Viditelnost 9700m
Počasí -
Oblaky Scattered Clouds 1500ft
Scattered Clouds 6000ft
Tlak 1009
Změna -
Nezpracované ETHS 160820Z 24011KT 9999 SCT015 SCT060 22/18 Q1009 BLU+BLU+

MVFR

21°C / 18°C

[Víc]
Vítr 250º 7kt
Viditelnost 9700m
Počasí -
Oblaky Broken Clouds 2000ft
Scattered Clouds 9000ft
Tlak 1009
Změna Temporary: WHT
Nezpracované ETHS 160759Z 25007KT 9999 BKN020 SCT090 21/18 Q1009 WHT BLU+ TEMPO WHT

VFR

20°C / 18°C

[Víc]
Vítr 200º 7kt
Viditelnost 9700m
Počasí -
Oblaky Few Clouds 900ft
Scattered Clouds 2500ft
Broken Clouds 30000ft
Tlak 1009
Změna -
Nezpracované ETHS 160720Z 20007KT 9999 FEW009 SCT025 BKN300 20/18 Q1009 BLU+BLU+

MVFR

19°C / 17°C

[Víc]
Vítr 170º 4kt
Viditelnost 8000m
Počasí -
Oblaky Few Clouds 300ft
Broken Clouds 4000ft
Broken Clouds 10000ft
Tlak 1009
Změna -
Nezpracované ETHS 160620Z 17004KT 8000 FEW003 BKN040 BKN100 19/17 Q1009 BLU BLU

MVFR

17°C / 17°C

[Víc]
Vítr 1kt
Viditelnost 6000m
Počasí -
Oblaky Few Clouds 300ft
Scattered Clouds 6000ft
Broken Clouds 10000ft
Tlak 1008
Změna -
Nezpracované ETHS 160520Z VRB01KT 6000 FEW003 SCT060 BKN100 17/17 Q1008 WHT BLU

MVFR

17°C / 16°C

[Víc]
Vítr 1kt
Viditelnost 6000m
Počasí -
Oblaky Few Clouds 300ft
Scattered Clouds 6000ft
Broken Clouds 9000ft
Tlak 1008
Změna -
Nezpracované ETHS 160433Z VRB01KT 6000 FEW003 SCT060 BKN090 17/16 Q1008 WHT BLU

MVFR

17°C / 16°C

[Víc]
Vítr 110º 2kt
Viditelnost 8000m
Počasí -
Oblaky Few Clouds 300ft
Scattered Clouds 6000ft
Broken Clouds 10000ft
Tlak 1008
Změna -
Nezpracované ETHS 160420Z 11002KT 8000 FEW003 SCT060 BKN100 17/16 Q1008 BLU BLU

VFR

16°C / 16°C

[Víc]
Vítr 120º 4kt
Viditelnost 9700m
Počasí Light Rain 1.00mm precipitation
Oblaky Few Clouds 300ft
Broken Clouds 10000ft
Tlak 1009
Změna -
Nezpracované ETHS 160320Z 12004KT 9999 -RA FEW003 BKN100 16/16 Q1009 BLU

VFR

17°C / 15°C

[Víc]
Vítr 150º 6kt
Viditelnost 9700m
Počasí Light Rain 1.00mm precipitation
Oblaky Broken Clouds 8000ft
Tlak 1009
Změna -
Nezpracované ETHS 160220Z 15006KT 9999 -RA BKN080 17/15 Q1009 BLU

VFR

17°C / 12°C

[Víc]
Vítr 180º 6kt
Viditelnost 9700m
Počasí -
Oblaky Broken Clouds 11000ft
Tlak 1010
Změna -
Nezpracované ETHS 160120Z 18006KT 9999 BKN110 17/12 Q1010 BLU

VFR

17°C / 11°C

[Víc]
Vítr 80º 6kt
Viditelnost 9700m
Počasí -
Oblaky Broken Clouds 11000ft
Tlak 1009
Změna -
Nezpracované ETHS 160020Z 08006KT 9999 BKN110 17/11 Q1009 BLU

VFR

17°C / 12°C

[Víc]
Vítr 80º 6kt
Viditelnost 9700m
Počasí -
Oblaky Broken Clouds 12000ft
Tlak 1009
Změna -
Nezpracované ETHS 152320Z 08006KT 9999 BKN120 17/12 Q1009 BLU

VFR

16°C / 12°C

[Víc]
Vítr 80º 6kt
Viditelnost 9700m
Počasí -
Oblaky Scattered Clouds 16000ft
Broken Clouds 23000ft
Tlak 1010
Změna -
Nezpracované ETHS 152220Z 08006KT 9999 SCT160 BKN230 16/12 Q1010 BLU+

VFR

17°C / 12°C

[Víc]
Vítr 70º 6kt
Viditelnost 9700m
Počasí -
Oblaky Broken Clouds 25000ft
Tlak 1010
Změna -
Nezpracované ETHS 152120Z 07006KT 9999 BKN250 17/12 Q1010 BLU+

VFR

17°C / 13°C

[Víc]
Vítr 70º 6kt
Viditelnost 9700m
Počasí -
Oblaky Broken Clouds 26000ft
Tlak 1010
Změna -
Nezpracované ETHS 152020Z 07006KT 9999 BKN260 17/13 Q1010 BLU+

VFR

20°C / 12°C

[Víc]
Vítr 50º 3kt
Viditelnost 9700m
Počasí -
Oblaky Broken Clouds 26000ft
Tlak 1011
Změna -
Nezpracované ETHS 151920Z 05003KT 9999 BKN260 20/12 Q1011 BLU+

VFR

22°C / 13°C

[Víc]
Vítr 60º 4kt
Viditelnost 9700m
Počasí -
Oblaky Broken Clouds 24000ft
Tlak 1010
Změna -
Nezpracované ETHS 151820Z 06004KT 9999 BKN240 22/13 Q1010 BLU+

VFR

25°C / 8°C

[Víc]
Vítr 160º 2kt
Viditelnost 9700m
Počasí -
Oblaky Few Clouds 5000ft
Broken Clouds 24000ft
Tlak 1011
Změna -
Nezpracované ETHS 151720Z 16002KT 9999 FEW050 BKN240 25/08 Q1011 BLU+

VFR

25°C / 9°C

[Víc]
Vítr 160º 3kt
Viditelnost 9700m
Počasí -
Oblaky Few Clouds 5000ft
Broken Clouds 26000ft
Tlak 1011
Změna -
Nezpracované ETHS 151620Z 16003KT 9999 FEW050 BKN260 25/09 Q1011 BLU+

VFR

25°C / 8°C

[Víc]
Vítr 230º 4kt
Viditelnost 9700m
Počasí -
Oblaky Few Clouds 6000ft
Scattered Clouds 25000ft
Tlak 1011
Změna -
Nezpracované ETHS 151520Z 23004KT 9999 FEW060 SCT250 25/08 Q1011 BLU+

VFR

25°C / 8°C

[Víc]
Vítr 210º 4kt
Viditelnost 9700m
Počasí -
Oblaky Few Clouds 6000ft
Broken Clouds 25000ft
Tlak 1012
Změna -
Nezpracované ETHS 151500Z 21004KT 9999 FEW060 BKN250 25/08 Q1012 BLU+FCST CNL

TAF pro Hermannsburg (ETHS)

From till


From till Wind 230º 8kt. Visibility 9700m. Scattered Clouds 5000ft.
Temporarly from till Wind 240º 12kt. Gust 25kt. Visibility 6000m. Showers Rain . Broken Clouds 5000ft.
With 30% probability, from till Wind 280º 15kt. Gust 30kt. Visibility 3000m. Thunderstorm Rain . Broken Clouds 1000ft. Broken Clouds 3000ft.

Nezpracované: TAF ETHS 161015Z 1611/1620 23008KT 9999 NSW SCT050 TEMPO 1611/1617 24012G25KT 6000 SHRA BKN050CB PROB30 1612/1617 28015G30KT 3000 TSRA BKN010 BKN030CB

rainNOW: Předpověď deště pro Hermannsburg a okolí (v okruhu 25 km)

0.0 mm
0.0 mm
0.0 mm
0.0 mm
0.0 mm
0.0 mm
0.0 mm
0.0 mm
0.0 mm
0.0 mm
0.0 mm
0.0 mm

Radar a krátkodobá předpověď srážek pro Hermannsburg

Mrholení
Slabé
Střední
Silné
Velmi silné
Kroupy

Značka lokality je umístněna na Hermannsburg. Tato animace zobrazuje srážkový radar pro vybraný časový rozsah a také 2h předpověď. Oranžové křížky označují blesky. Údaje poskytl nowcast.de (k dispozici v USA, Evropě a Austrálii). Mrholení nebo slabé sněžení může být pro radar neviditelné. Intenzita srážek je barevně označena od tyrkysové po červenou.

Aktuální snímky ze satelitu a srážky pro Hermannsburg, Německo

Značka polohy je umístěna na Hermannsburg. [Víc]

Satelitní snímek v reálném čase kombinuje viditelné světlo během dne s infračerveným zářením během noci. V noci není obraz tmavý, protože infračervené záření dokáže detekovat teplotní rozdíly. Nízká oblačnost a mlha se bohužel těžko odlišují od pozemních teplot, a proto mohou být během noci téměř neviditelné. Satelitní snímky z Meteosatu pro Evropu jsou aktualizovány v reálném čase každých 5 minut. Snímky z GOES-16/GOES-17 (Severní a Jižní Amerika) a Himawari (Asie) jsou aktualizovány) každých 10 minut.

Srážky se odhadují z radarů a družic. Odhady srážek ze satelitů jsou v noci méně přesné než ve dne.

© 2024 meteoblue, NOAA Satellites GOES-16 and EUMETSAT. Údaje o blescích poskytuje nowcast.

Zpět nahoru
×
Dobrý den,
zdá se, že používáte blokovač reklam.

Reklama je nezbytná pro udržování našich bezplatných webových stránek s jedinečnými detaily a přesností.

Prosím, zapište www.meteoblue.com do svého blokovače reklam nebo zvažte nákup některého z našich produktů:

Máte již předplatné?
Pak se prosím přihlaste.